Time;durP1;ratioP1;P1;durP2;ratioP2;P2;SDS_P1;SDS_P2;PMS_P1;PMS_P2;Temp;Humidity;BMP_temperature;BMP_pressure;BME280_temperature;BME280_humidity;BME280_pressure;Samples;Min_cycle;Max_cycle;Signal;HPM_P1;HPM_P2
2023/02/11 00:01:44;;;;;;;18.80;11.30;;;;;;;-128.00;-1.00;-1.00;102377;1257;1013493;-44
2023/02/11 00:04:12;;;;;;;26.20;13.30;;;;;;;-128.00;-1.00;-1.00;102527;1258;1002468;-46
2023/02/11 00:06:40;;;;;;;21.50;13.00;;;;;;;-128.00;-1.00;-1.00;102108;1259;1003306;-46
2023/02/11 00:09:10;;;;;;;22.60;11.30;;;;;;;-128.00;-1.00;-1.00;102189;1261;1011352;-47
2023/02/11 00:11:37;;;;;;;25.50;13.30;;;;;;;-128.00;-1.00;-1.00;102626;1256;1005056;-46
2023/02/11 00:14:07;;;;;;;23.20;12.50;;;;;;;-128.00;-1.00;-1.00;102732;1259;1003009;-44
2023/02/11 00:16:35;;;;;;;24.20;12.50;;;;;;;-128.00;-1.00;-1.00;102690;1255;1012955;-46
2023/02/11 00:19:05;;;;;;;25.00;13.20;;;;;;;-128.00;-1.00;-1.00;102646;1259;1010272;-46
2023/02/11 00:21:34;;;;;;;28.30;12.90;;;;;;;-128.00;-1.00;-1.00;102478;1259;1011434;-47
2023/02/11 00:24:02;;;;;;;22.70;11.80;;;;;;;-128.00;-1.00;-1.00;102567;1259;1002747;-44
2023/02/11 00:26:32;;;;;;;24.90;12.60;;;;;;;-128.00;-1.00;-1.00;102210;1256;1012778;-49
2023/02/11 00:29:01;;;;;;;24.10;12.90;;;;;;;-128.00;-1.00;-1.00;102175;1259;1013230;-44
2023/02/11 00:31:31;;;;;;;23.30;12.70;;;;;;;-128.00;-1.00;-1.00;102730;1263;1009783;-46
2023/02/11 00:34:00;;;;;;;19.90;11.80;;;;;;;-128.00;-1.00;-1.00;102811;1257;1011341;-43
2023/02/11 00:36:28;;;;;;;21.50;11.80;;;;;;;-128.00;-1.00;-1.00;102358;1260;1012591;-45
2023/02/11 00:38:56;;;;;;;24.50;11.40;;;;;;;-128.00;-1.00;-1.00;102281;1257;1012962;-45
2023/02/11 00:41:24;;;;;;;27.50;11.30;;;;;;;-128.00;-1.00;-1.00;102481;1257;1013521;-46
2023/02/11 00:43:53;;;;;;;19.60;10.10;;;;;;;-128.00;-1.00;-1.00;102310;1254;1011480;-44
2023/02/11 00:46:21;;;;;;;21.40;10.50;;;;;;;-128.00;-1.00;-1.00;102776;1259;1010735;-45
2023/02/11 00:48:50;;;;;;;19.10;11.00;;;;;;;-128.00;-1.00;-1.00;102500;1256;1013107;-45
2023/02/11 00:51:25;;;;;;;24.60;12.40;;;;;;;-128.00;-1.00;-1.00;102471;1259;1012751;-45
2023/02/11 00:53:53;;;;;;;26.80;13.40;;;;;;;-128.00;-1.00;-1.00;102359;1260;1013539;-44
2023/02/11 00:56:23;;;;;;;23.50;11.50;;;;;;;-128.00;-1.00;-1.00;102577;1259;1010547;-46
2023/02/11 00:58:52;;;;;;;21.20;12.10;;;;;;;-128.00;-1.00;-1.00;102365;1257;1002673;-46
2023/02/11 01:01:20;;;;;;;26.60;13.20;;;;;;;-128.00;-1.00;-1.00;102514;1256;1012292;-44
2023/02/11 01:03:48;;;;;;;21.40;11.20;;;;;;;-128.00;-1.00;-1.00;102780;1262;1012911;-45
2023/02/11 01:06:16;;;;;;;25.80;13.60;;;;;;;-128.00;-1.00;-1.00;102524;1259;1002516;-44
2023/02/11 01:08:44;;;;;;;25.20;13.10;;;;;;;-128.00;-1.00;-1.00;102328;1259;1002757;-43
2023/02/11 01:11:17;;;;;;;22.80;11.90;;;;;;;-128.00;-1.00;-1.00;102605;1254;1012687;-44
2023/02/11 01:13:46;;;;;;;21.20;10.80;;;;;;;-128.00;-1.00;-1.00;102850;1256;1012948;-44
2023/02/11 01:16:15;;;;;;;25.40;11.20;;;;;;;-128.00;-1.00;-1.00;102749;1257;1012870;-45
2023/02/11 01:18:45;;;;;;;22.20;11.20;;;;;;;-128.00;-1.00;-1.00;103406;1254;1012238;-44
2023/02/11 01:21:13;;;;;;;25.50;11.10;;;;;;;-128.00;-1.00;-1.00;102671;1256;1011011;-44
2023/02/11 01:23:43;;;;;;;24.80;10.30;;;;;;;-128.00;-1.00;-1.00;102690;1259;1011351;-43
2023/02/11 01:26:12;;;;;;;22.20;11.60;;;;;;;-128.00;-1.00;-1.00;102848;1259;1012151;-46
2023/02/11 01:28:40;;;;;;;25.00;12.10;;;;;;;-128.00;-1.00;-1.00;103211;1259;1012148;-45
2023/02/11 01:31:08;;;;;;;23.40;12.20;;;;;;;-128.00;-1.00;-1.00;102581;1259;1004293;-42
2023/02/11 01:33:36;;;;;;;23.60;12.30;;;;;;;-128.00;-1.00;-1.00;102846;1259;1002685;-45
2023/02/11 01:36:07;;;;;;;25.10;13.20;;;;;;;-128.00;-1.00;-1.00;102360;1254;1011297;-47
2023/02/11 01:38:35;;;;;;;22.40;11.40;;;;;;;-128.00;-1.00;-1.00;103080;1258;1013234;-45
2023/02/11 01:41:05;;;;;;;22.40;12.40;;;;;;;-128.00;-1.00;-1.00;102703;1255;1013376;-45
2023/02/11 01:43:35;;;;;;;27.60;13.30;;;;;;;-128.00;-1.00;-1.00;102446;1259;1013225;-45
2023/02/11 01:46:22;;;;;;;22.20;10.80;;;;;;;-128.00;-1.00;-1.00;102402;1259;1010182;-43
2023/02/11 01:48:57;;;;;;;23.70;12.20;;;;;;;-128.00;-1.00;-1.00;102706;1259;1010966;-45
2023/02/11 01:51:59;;;;;;;26.50;13.50;;;;;;;-128.00;-1.00;-1.00;102528;1256;1012340;-45
2023/02/11 01:57:21;;;;;;;24.30;11.20;;;;;;;-128.00;-1.00;-1.00;102145;1261;1013120;-43
2023/02/11 02:00:07;;;;;;;22.20;11.10;;;;;;;-128.00;-1.00;-1.00;102602;1254;1009962;-45
2023/02/11 02:03:01;;;;;;;32.70;13.60;;;;;;;-128.00;-1.00;-1.00;102539;1259;1011761;-45
2023/02/11 02:05:51;;;;;;;31.00;12.50;;;;;;;-128.00;-1.00;-1.00;102176;1254;1013338;-47
2023/02/11 02:08:50;;;;;;;20.20;11.70;;;;;;;-128.00;-1.00;-1.00;102744;1255;1013173;-46
2023/02/11 02:11:18;;;;;;;24.80;12.40;;;;;;;-128.00;-1.00;-1.00;103475;1255;1013193;-47
2023/02/11 02:13:46;;;;;;;29.30;14.20;;;;;;;-128.00;-1.00;-1.00;102561;1253;1002653;-44
2023/02/11 02:16:15;;;;;;;24.30;12.00;;;;;;;-128.00;-1.00;-1.00;102678;1257;1002967;-45
2023/02/11 02:18:47;;;;;;;27.60;13.80;;;;;;;-128.00;-1.00;-1.00;102730;1256;1017559;-44
2023/02/11 02:21:43;;;;;;;23.80;13.40;;;;;;;-128.00;-1.00;-1.00;102620;1255;1013206;-46
2023/02/11 02:24:36;;;;;;;28.40;14.30;;;;;;;-128.00;-1.00;-1.00;102829;1253;1013544;-48
2023/02/11 02:27:23;;;;;;;24.10;12.50;;;;;;;-128.00;-1.00;-1.00;102704;1256;1009951;-45
2023/02/11 02:30:29;;;;;;;30.70;14.30;;;;;;;-128.00;-1.00;-1.00;102816;1254;1011814;-47
2023/02/11 02:33:14;;;;;;;27.50;13.10;;;;;;;-128.00;-1.00;-1.00;102910;1255;1013161;-47
2023/02/11 02:35:59;;;;;;;40.00;13.50;;;;;;;-128.00;-1.00;-1.00;102922;1255;1011939;-48
2023/02/11 02:38:30;;;;;;;28.50;13.00;;;;;;;-128.00;-1.00;-1.00;102843;1253;1013434;-47
2023/02/11 02:41:00;;;;;;;24.20;11.60;;;;;;;-128.00;-1.00;-1.00;102822;1252;1010768;-47
2023/02/11 02:43:29;;;;;;;24.40;12.20;;;;;;;-128.00;-1.00;-1.00;102518;1257;1011894;-47
2023/02/11 02:46:10;;;;;;;26.30;12.70;;;;;;;-128.00;-1.00;-1.00;103016;1259;1015002;-47
2023/02/11 02:48:38;;;;;;;30.30;13.60;;;;;;;-128.00;-1.00;-1.00;102769;1256;1012476;-47
2023/02/11 02:51:20;;;;;;;29.80;15.20;;;;;;;-128.00;-1.00;-1.00;102762;1256;1012332;-47
2023/02/11 02:54:22;;;;;;;29.00;15.60;;;;;;;-128.00;-1.00;-1.00;103078;1255;1010334;-47
2023/02/11 02:56:54;;;;;;;35.10;16.20;;;;;;;-128.00;-1.00;-1.00;102690;1253;1011254;-48
2023/02/11 03:00:00;;;;;;;32.80;15.80;;;;;;;-128.00;-1.00;-1.00;103481;1253;1013102;-48
2023/02/11 03:02:32;;;;;;;28.50;16.40;;;;;;;-128.00;-1.00;-1.00;102737;1255;1013067;-47
2023/02/11 03:05:22;;;;;;;32.10;16.60;;;;;;;-128.00;-1.00;-1.00;103971;1258;1013054;-48
2023/02/11 03:08:04;;;;;;;30.90;15.80;;;;;;;-128.00;-1.00;-1.00;103032;1255;1010017;-45
2023/02/11 03:10:35;;;;;;;31.70;15.00;;;;;;;-128.00;-1.00;-1.00;102887;1257;1010874;-47
2023/02/11 03:13:04;;;;;;;33.90;16.70;;;;;;;-128.00;-1.00;-1.00;106509;1251;1013463;-47
2023/02/11 03:15:36;;;;;;;31.40;15.10;;;;;;;-128.00;-1.00;-1.00;102500;1251;1003314;-47
2023/02/11 03:18:04;;;;;;;29.40;14.40;;;;;;;-128.00;-1.00;-1.00;102830;1251;1013869;-47
2023/02/11 03:20:33;;;;;;;30.10;14.10;;;;;;;-128.00;-1.00;-1.00;102729;1255;1002424;-44
2023/02/11 03:23:05;;;;;;;30.40;14.40;;;;;;;-128.00;-1.00;-1.00;102728;1257;1011753;-47
2023/02/11 03:25:36;;;;;;;27.60;14.30;;;;;;;-128.00;-1.00;-1.00;102489;1256;1012154;-44
2023/02/11 03:28:18;;;;;;;33.00;15.40;;;;;;;-128.00;-1.00;-1.00;102909;1253;1012640;-45
2023/02/11 03:30:51;;;;;;;27.40;14.10;;;;;;;-128.00;-1.00;-1.00;102964;1252;1013263;-46
2023/02/11 03:33:40;;;;;;;30.60;16.10;;;;;;;-128.00;-1.00;-1.00;103018;1252;1009742;-45
2023/02/11 03:36:11;;;;;;;28.60;15.40;;;;;;;-128.00;-1.00;-1.00;102989;1256;1011088;-46
2023/02/11 03:38:44;;;;;;;35.90;16.10;;;;;;;-128.00;-1.00;-1.00;102673;1257;1013602;-48
2023/02/11 03:41:12;;;;;;;29.80;16.20;;;;;;;-128.00;-1.00;-1.00;102945;1256;1013459;-46
2023/02/11 03:43:45;;;;;;;32.80;16.80;;;;;;;-128.00;-1.00;-1.00;102906;1257;1013308;-49
2023/02/11 03:46:13;;;;;;;31.40;16.20;;;;;;;-128.00;-1.00;-1.00;102567;1255;1011119;-48
2023/02/11 03:48:50;;;;;;;32.60;14.90;;;;;;;-128.00;-1.00;-1.00;102657;1258;1011511;-48
2023/02/11 03:51:19;;;;;;;32.30;15.50;;;;;;;-128.00;-1.00;-1.00;102799;1253;1012386;-48
2023/02/11 03:53:47;;;;;;;26.50;14.10;;;;;;;-128.00;-1.00;-1.00;102626;1255;1012925;-47
2023/02/11 03:56:19;;;;;;;31.80;14.30;;;;;;;-128.00;-1.00;-1.00;102896;1258;1003951;-47
2023/02/11 03:58:47;;;;;;;26.40;13.70;;;;;;;-128.00;-1.00;-1.00;102429;1256;1010887;-48
2023/02/11 04:01:15;;;;;;;28.80;14.80;;;;;;;-128.00;-1.00;-1.00;102793;1257;1011324;-47
2023/02/11 04:03:43;;;;;;;33.40;15.70;;;;;;;-128.00;-1.00;-1.00;102586;1254;1012797;-48
2023/02/11 04:06:11;;;;;;;28.90;13.10;;;;;;;-128.00;-1.00;-1.00;102873;1256;1002928;-48
2023/02/11 04:08:41;;;;;;;29.30;13.80;;;;;;;-128.00;-1.00;-1.00;102546;1256;1013587;-48
2023/02/11 04:11:10;;;;;;;28.00;13.40;;;;;;;-128.00;-1.00;-1.00;102791;1256;1010527;-48
2023/02/11 04:13:39;;;;;;;27.00;13.10;;;;;;;-128.00;-1.00;-1.00;102501;1253;1010809;-47
2023/02/11 04:16:07;;;;;;;29.60;14.50;;;;;;;-128.00;-1.00;-1.00;102660;1256;1003050;-48
2023/02/11 04:18:40;;;;;;;25.90;14.10;;;;;;;-128.00;-1.00;-1.00;102502;1254;1012817;-46
2023/02/11 04:21:08;;;;;;;30.40;14.60;;;;;;;-128.00;-1.00;-1.00;102707;1255;1003028;-46
2023/02/11 04:23:36;;;;;;;26.70;13.80;;;;;;;-128.00;-1.00;-1.00;102613;1253;1004533;-46
2023/02/11 04:26:04;;;;;;;29.10;15.20;;;;;;;-128.00;-1.00;-1.00;102842;1255;1010854;-46
2023/02/11 04:28:33;;;;;;;29.50;13.20;;;;;;;-128.00;-1.00;-1.00;102664;1253;1012288;-48
2023/02/11 04:31:01;;;;;;;27.50;13.00;;;;;;;-128.00;-1.00;-1.00;102738;1255;1014836;-46
2023/02/11 04:33:30;;;;;;;25.00;10.90;;;;;;;-128.00;-1.00;-1.00;102716;1256;1012485;-47
2023/02/11 04:35:58;;;;;;;24.50;11.80;;;;;;;-128.00;-1.00;-1.00;102613;1253;1003389;-47
2023/02/11 04:38:26;;;;;;;23.20;10.60;;;;;;;-128.00;-1.00;-1.00;103070;1255;1002977;-48
2023/02/11 04:40:53;;;;;;;22.60;11.00;;;;;;;-128.00;-1.00;-1.00;102548;1256;1003464;-47
2023/02/11 04:43:26;;;;;;;21.60;9.80;;;;;;;-128.00;-1.00;-1.00;102592;1257;1012942;-47
2023/02/11 04:45:57;;;;;;;29.30;12.50;;;;;;;-128.00;-1.00;-1.00;102468;1252;1003003;-46
2023/02/11 04:48:25;;;;;;;24.90;11.50;;;;;;;-128.00;-1.00;-1.00;103354;1256;1010460;-47
2023/02/11 04:50:54;;;;;;;24.40;11.40;;;;;;;-128.00;-1.00;-1.00;102890;1255;1010954;-44
2023/02/11 04:53:22;;;;;;;22.50;11.30;;;;;;;-128.00;-1.00;-1.00;102936;1255;1003024;-46
2023/02/11 04:55:50;;;;;;;20.80;11.30;;;;;;;-128.00;-1.00;-1.00;102588;1253;1004018;-47
2023/02/11 04:58:18;;;;;;;20.90;10.80;;;;;;;-128.00;-1.00;-1.00;102980;1252;1012569;-47
2023/02/11 05:00:46;;;;;;;27.30;11.50;;;;;;;-128.00;-1.00;-1.00;102562;1251;1005209;-46
2023/02/11 05:03:14;;;;;;;23.70;11.20;;;;;;;-128.00;-1.00;-1.00;102886;1255;1010979;-48
2023/02/11 05:06:31;;;;;;;27.60;12.50;;;;;;;;;;102317;1288;601626;-47
2023/02/11 05:08:58;;;;;;;23.50;12.60;;;;;;;;;;104506;1265;59073;-47
2023/02/11 05:11:26;;;;;;;23.20;11.10;;;;;;;;;;104555;1263;59116;-46
2023/02/11 05:13:54;;;;;;;19.40;10.60;;;;;;;;;;104589;1266;61095;-47
2023/02/11 05:16:22;;;;;;;22.40;9.70;;;;;;;;;;104509;1269;59133;-47
2023/02/11 05:18:50;;;;;;;22.80;9.40;;;;;;;;;;104236;1266;60803;-45
2023/02/11 05:21:21;;;;;;;22.50;10.20;;;;;;;;;;104877;1267;122248;-48
2023/02/11 05:23:48;;;;;;;19.00;9.70;;;;;;;;;;104994;1267;59397;-46
2023/02/11 05:26:16;;;;;;;21.90;9.30;;;;;;;;;;104719;1267;60613;-44
2023/02/11 05:28:44;;;;;;;25.50;11.50;;;;;;;;;;104873;1265;59061;-47
2023/02/11 05:31:13;;;;;;;24.10;11.00;;;;;;;;;;105113;1267;60609;-47
2023/02/11 05:33:42;;;;;;;22.70;11.70;;;;;;;;;;104808;1264;59555;-49
2023/02/11 05:36:10;;;;;;;24.90;11.40;;;;;;;;;;104992;1267;59002;-48
2023/02/11 05:38:38;;;;;;;22.30;11.70;;;;;;;;;;104509;1263;61101;-43
2023/02/11 05:41:06;;;;;;;26.60;13.30;;;;;;;;;;104746;1267;59487;-47
2023/02/11 05:43:35;;;;;;;32.10;14.60;;;;;;;;;;104759;1267;60952;-47
2023/02/11 05:46:03;;;;;;;27.80;14.30;;;;;;;;;;104829;1263;59759;-46
2023/02/11 05:48:31;;;;;;;25.70;13.00;;;;;;;;;;104821;1267;63229;-46
2023/02/11 05:50:59;;;;;;;27.60;13.50;;;;;;;;;;104766;1265;61143;-45
2023/02/11 05:53:27;;;;;;;26.10;12.80;;;;;;;;;;105334;1264;59350;-47
2023/02/11 05:55:56;;;;;;;24.20;11.20;;;;;;;;;;104665;1267;60760;-48
2023/02/11 05:58:24;;;;;;;25.20;10.70;;;;;;;;;;104653;1269;59727;-49
2023/02/11 06:00:52;;;;;;;20.70;10.40;;;;;;;;;;104614;1267;59621;-47
2023/02/11 06:03:20;;;;;;;21.40;9.50;;;;;;;;;;104757;1263;61287;-45
2023/02/11 06:05:48;;;;;;;23.10;10.00;;;;;;;;;;104372;1267;59659;-48
2023/02/11 06:08:16;;;;;;;21.70;10.30;;;;;;;;;;104645;1264;60487;-47
2023/02/11 06:10:45;;;;;;;22.50;10.00;;;;;;;;;;104768;1267;59635;-47
2023/02/11 06:13:13;;;;;;;21.50;9.80;;;;;;;;;;104645;1263;59746;-46
2023/02/11 06:15:41;;;;;;;21.70;10.20;;;;;;;;;;104370;1263;61022;-45
2023/02/11 06:18:09;;;;;;;20.60;9.90;;;;;;;;;;104413;1263;60550;-45
2023/02/11 06:20:40;;;;;;;21.80;9.90;;;;;;;;;;104815;1263;62443;-43
2023/02/11 06:23:08;;;;;;;26.80;11.30;;;;;;;;;;104553;1267;59609;-41
2023/02/11 06:25:36;;;;;;;23.80;11.30;;;;;;;;;;104489;1263;59593;-42
2023/02/11 06:28:04;;;;;;;24.00;10.20;;;;;;;;;;104532;1263;61415;-44
2023/02/11 06:30:32;;;;;;;22.30;9.10;;;;;;;;;;104534;1264;59877;-42
2023/02/11 06:33:00;;;;;;;27.40;10.50;;;;;;;;;;104483;1263;60789;-43
2023/02/11 06:35:28;;;;;;;22.20;9.70;;;;;;;;;;104722;1267;60878;-45
2023/02/11 06:37:56;;;;;;;18.90;10.30;;;;;;;;;;104583;1268;60204;-47
2023/02/11 06:40:24;;;;;;;19.00;9.20;;;;;;;;;;104689;1260;61074;-42
2023/02/11 06:42:52;;;;;;;23.70;12.10;;;;;;;;;;104906;1260;59558;-48
2023/02/11 06:45:20;;;;;;;27.90;12.40;;;;;;;;;;104453;1260;61070;-44
2023/02/11 06:47:49;;;;;;;27.30;12.40;;;;;;;;;;105712;1260;59737;-45
2023/02/11 06:50:17;;;;;;;26.80;11.30;;;;;;;;;;104703;1261;60008;-46
2023/02/11 06:52:45;;;;;;;20.60;10.50;;;;;;;;;;105089;1260;60225;-45
2023/02/11 06:55:13;;;;;;;24.60;11.50;;;;;;;;;;105029;1260;59541;-45
2023/02/11 06:57:42;;;;;;;24.40;11.40;;;;;;;;;;104735;1260;59787;-47
2023/02/11 07:00:10;;;;;;;26.40;11.80;;;;;;;;;;104643;1264;59725;-47
2023/02/11 07:02:39;;;;;;;27.20;13.20;;;;;;;;;;104609;1260;59651;-45
2023/02/11 07:05:08;;;;;;;26.70;12.80;;;;;;;;;;105099;1260;61315;-47
2023/02/11 07:07:37;;;;;;;25.90;14.40;;;;;;;;;;105213;1265;59541;-46
2023/02/11 07:10:05;;;;;;;25.10;13.20;;;;;;;;;;104567;1260;60486;-46
2023/02/11 07:12:33;;;;;;;28.30;14.20;;;;;;;;;;104500;1263;60169;-47
2023/02/11 07:15:01;;;;;;;26.10;13.40;;;;;;;;;;104228;1260;59625;-48
2023/02/11 07:17:29;;;;;;;26.10;12.00;;;;;;;;;;105458;1262;61348;-48
2023/02/11 07:19:57;;;;;;;22.20;12.50;;;;;;;;;;104562;1263;59640;-45
2023/02/11 07:22:25;;;;;;;27.30;14.20;;;;;;;;;;108757;1259;60461;-45
2023/02/11 07:24:53;;;;;;;29.70;13.50;;;;;;;;;;106958;1259;59723;-45
2023/02/11 07:27:21;;;;;;;33.10;14.90;;;;;;;;;;104463;1264;58975;-46
2023/02/11 07:29:49;;;;;;;26.50;15.50;;;;;;;;;;104868;1260;61203;-45
2023/02/11 07:32:17;;;;;;;31.70;16.00;;;;;;;;;;104758;1263;59528;-46
2023/02/11 07:34:47;;;;;;;26.30;12.80;;;;;;;;;;104783;1260;60841;-46
2023/02/11 07:37:15;;;;;;;30.70;15.80;;;;;;;;;;104530;1260;59765;-48
2023/02/11 07:39:42;;;;;;;30.00;15.70;;;;;;;;;;104682;1262;59568;-45
2023/02/11 07:42:10;;;;;;;29.70;14.40;;;;;;;;;;104917;1260;60149;-46
2023/02/11 07:44:39;;;;;;;31.80;14.20;;;;;;;;;;105032;1263;59573;-48
2023/02/11 07:47:07;;;;;;;30.90;13.80;;;;;;;;;;104933;1260;60917;-45
2023/02/11 07:49:35;;;;;;;31.70;14.10;;;;;;;;;;105391;1264;59839;-46
2023/02/11 07:52:03;;;;;;;28.30;12.90;;;;;;;;;;104562;1262;59541;-47
2023/02/11 07:54:32;;;;;;;36.10;16.30;;;;;;;;;;104827;1264;59839;-46
2023/02/11 07:56:59;;;;;;;39.40;21.60;;;;;;;;;;106157;1264;59679;-47
2023/02/11 07:59:27;;;;;;;52.40;29.30;;;;;;;;;;104906;1260;60622;-48
2023/02/11 08:01:55;;;;;;;54.40;30.30;;;;;;;;;;104485;1265;60094;-45
2023/02/11 08:04:23;;;;;;;42.90;23.00;;;;;;;;;;105022;1264;59600;-48
2023/02/11 08:06:53;;;;;;;41.10;23.70;;;;;;;;;;104864;1260;61057;-52
2023/02/11 08:09:24;;;;;;;35.20;20.30;;;;;;;;;;104929;1264;59731;-47
2023/02/11 08:11:52;;;;;;;38.20;16.50;;;;;;;;;;104619;1261;60738;-45
2023/02/11 08:14:20;;;;;;;27.90;15.80;;;;;;;;;;104795;1260;59713;-49
2023/02/11 08:16:48;;;;;;;29.20;14.90;;;;;;;;;;105172;1263;59685;-46
2023/02/11 08:19:16;;;;;;;32.90;14.50;;;;;;;;;;105064;1260;61193;-47
2023/02/11 08:21:45;;;;;;;30.60;14.10;;;;;;;;;;105096;1263;59510;-48
2023/02/11 08:24:13;;;;;;;25.50;13.80;;;;;;;;;;104916;1260;60821;-46
2023/02/11 08:26:42;;;;;;;29.30;14.80;;;;;;;;;;105114;1263;59618;-48
2023/02/11 08:29:11;;;;;;;32.40;15.80;;;;;;;;;;106930;1262;58369;-47
2023/02/11 08:31:39;;;;;;;30.90;14.90;;;;;;;;;;106123;1260;61045;-45
2023/02/11 08:34:08;;;;;;;29.10;15.10;;;;;;;;;;105082;1260;59740;-48
2023/02/11 08:36:37;;;;;;;26.50;13.90;;;;;;;;;;104940;1260;60965;-47
2023/02/11 08:39:08;;;;;;;27.30;13.40;;;;;;;;;;104840;1264;59733;-48
2023/02/11 08:41:47;;;;;;;29.40;13.70;;;;;;;;;;106062;1263;59808;-47
2023/02/11 08:44:17;;;;;;;31.50;14.40;;;;;;;;;;104962;1260;61027;-45
2023/02/11 08:46:45;;;;;;;30.30;15.10;;;;;;;;;;105184;1259;59561;-48
2023/02/11 08:49:13;;;;;;;31.60;15.00;;;;;;;;;;105050;1264;60475;-46
2023/02/11 08:51:42;;;;;;;28.80;15.40;;;;;;;;;;104982;1261;59643;-45
2023/02/11 08:54:09;;;;;;;37.20;18.20;;;;;;;;;;104891;1262;59765;-46
2023/02/11 08:56:37;;;;;;;34.30;16.10;;;;;;;;;;104870;1260;61499;-49
2023/02/11 08:59:08;;;;;;;26.90;16.50;;;;;;;;;;104989;1261;59628;-48
2023/02/11 09:01:37;;;;;;;30.10;16.00;;;;;;;;;;104611;1263;61147;-49
2023/02/11 09:04:05;;;;;;;26.60;14.80;;;;;;;;;;105015;1261;59756;-48
2023/02/11 09:06:33;;;;;;;23.70;13.00;;;;;;;;;;104807;1265;60353;-48
2023/02/11 09:09:01;;;;;;;33.00;15.80;;;;;;;;;;104778;1261;61378;-47
2023/02/11 09:11:30;;;;;;;30.90;15.70;;;;;;;;;;105252;1258;59637;-49
2023/02/11 09:13:59;;;;;;;32.20;14.70;;;;;;;;;;104896;1262;60600;-48
2023/02/11 09:16:29;;;;;;;33.60;16.00;;;;;;;;;;104635;1262;60544;-47
2023/02/11 09:18:59;;;;;;;26.70;14.20;;;;;;;;;;104868;1259;60430;-46
2023/02/11 09:21:27;;;;;;;27.20;14.20;;;;;;;;;;108392;1259;62085;-49
2023/02/11 09:23:55;;;;;;;32.60;17.50;;;;;;;;;;105149;1262;60474;-49
2023/02/11 09:26:33;;;;;;;31.10;15.30;;;;;;;;;;105088;1259;60816;-46
2023/02/11 09:29:01;;;;;;;31.40;16.10;;;;;;;;;;105114;1259;60614;-49
2023/02/11 09:31:30;;;;;;;30.10;17.70;;;;;;;;;;104920;1260;60592;-48
2023/02/11 09:34:00;;;;;;;32.90;15.90;;;;;;;;;;105308;1261;60884;-48
2023/02/11 09:36:29;;;;;;;29.50;16.40;;;;;;;;;;104949;1259;60548;-49
2023/02/11 09:38:58;;;;;;;35.60;17.10;;;;;;;;;;104873;1259;60759;-47
2023/02/11 09:41:35;;;;;;;27.90;16.80;;;;;;;;;;104966;1258;60542;-50
2023/02/11 09:44:05;;;;;;;30.40;16.90;;;;;;;;;;104849;1259;60423;-49
2023/02/11 09:46:34;;;;;;;34.00;18.80;;;;;;;;;;105146;1259;62050;-47
2023/02/11 09:49:03;;;;;;;31.70;17.90;;;;;;;;;;104865;1261;60435;-49
2023/02/11 09:51:35;;;;;;;31.50;16.90;;;;;;;;;;105753;1260;60459;-48
2023/02/11 09:54:04;;;;;;;30.00;17.30;;;;;;;;;;105055;1259;60536;-49
2023/02/11 09:56:32;;;;;;;28.90;16.00;;;;;;;;;;104940;1257;60447;-50
2023/02/11 09:59:00;;;;;;;28.60;16.40;;;;;;;;;;104704;1258;63648;-47
2023/02/11 10:01:28;;;;;;;32.90;17.50;;;;;;;;;;105272;1262;60908;-49
2023/02/11 10:03:59;;;;;;;28.00;16.10;;;;;;;;;;105355;1262;60670;-49
2023/02/11 10:06:27;;;;;;;29.00;15.30;;;;;;;;;;105081;1259;60524;-50
2023/02/11 10:09:01;;;;;;;31.30;17.10;;;;;;;;;;104888;1257;60633;-49
2023/02/11 10:11:39;;;;;;;26.30;15.70;;;;;;;;;;105125;1257;62254;-51
2023/02/11 10:14:06;;;;;;;28.70;16.10;;;;;;;;;;109017;1256;58612;-48
2023/02/11 10:16:41;;;;;;;28.30;16.40;;;;;;;;;;107633;1257;60543;-50
2023/02/11 10:19:16;;;;;;;28.90;15.50;;;;;;;;;;106249;1260;60517;-50
2023/02/11 10:21:45;;;;;;;;;;;;;;;;;;105353;1259;60464;-48
2023/02/11 10:24:13;;;;;;;30.00;15.90;;;;;;;;;;105622;1257;62114;-48
2023/02/11 10:26:42;;;;;;;28.00;15.70;;;;;;;;;;105603;1259;60292;-50
2023/02/11 10:29:13;;;;;;;29.20;17.30;;;;;;;;;;105028;1257;61016;-47
2023/02/11 10:31:41;;;;;;;26.40;15.20;;;;;;;;;;106269;1257;60479;-49
2023/02/11 10:34:10;;;;;;;30.50;17.10;;;;;;;;;;105250;1257;60461;-48
2023/02/11 10:36:42;;;;;;;31.70;16.10;;;;;;;;;;105444;1257;62282;-48
2023/02/11 10:39:17;;;;;;;27.60;16.40;;;;;;;;;;105251;1259;60543;-48
2023/02/11 10:41:46;;;;;;;30.90;15.40;;;;;;;;;;104956;1256;60478;-46
2023/02/11 10:44:24;;;;;;;23.20;13.40;;;;;;;;;;105774;1259;60530;-51
2023/02/11 10:46:53;;;;;;;27.70;15.50;;;;;;;;;;105401;1256;60485;-48
2023/02/11 10:49:34;;;;;;;26.50;15.70;;;;;;;;;;105321;1256;61883;-49
2023/02/11 10:52:19;;;;;;;26.10;15.10;;;;;;;;;;105105;1260;60566;-51
2023/02/11 10:55:00;;;;;;;26.60;15.00;;;;;;;;;;105242;1259;61325;-50
2023/02/11 10:57:33;;;;;;;30.80;17.30;;;;;;;;;;105680;1259;60600;-49
2023/02/11 11:00:06;;;;;;;29.00;16.40;;;;;;;;;;107989;1259;58171;-53
2023/02/11 11:02:35;;;;;;;27.80;14.80;;;;;;;;;;105137;1257;62148;-50
2023/02/11 11:05:04;;;;;;;23.50;14.40;;;;;;;;;;105411;1259;60347;-49
2023/02/11 11:07:33;;;;;;;27.90;15.40;;;;;;;;;;105064;1257;60730;-45
2023/02/11 11:10:02;;;;;;;27.30;16.20;;;;;;;;;;105172;1262;60541;-50
2023/02/11 11:12:44;;;;;;;28.90;15.50;;;;;;;;;;105208;1257;60539;-49
2023/02/11 11:15:12;;;;;;;29.60;15.10;;;;;;;;;;104929;1257;61885;-50
2023/02/11 11:17:43;;;;;;;28.20;16.80;;;;;;;;;;105282;1257;60562;-48
2023/02/11 11:20:14;;;;;;;25.10;15.60;;;;;;;;;;105238;1257;60442;-53
2023/02/11 11:22:42;;;;;;;25.50;14.90;;;;;;;;;;105063;1260;60549;-47
2023/02/11 11:25:21;;;;;;;34.70;17.30;;;;;;;;;;105008;1257;60457;-48
2023/02/11 11:27:53;;;;;;;30.70;16.40;;;;;;;;;;105070;1257;62147;-53
2023/02/11 11:30:21;;;;;;;24.80;14.10;;;;;;;;;;105220;1262;60407;-50
2023/02/11 11:32:52;;;;;;;23.30;14.10;;;;;;;;;;105293;1257;60639;-47
2023/02/11 11:35:29;;;;;;;27.30;17.40;;;;;;;;;;105332;1260;60532;-53
2023/02/11 11:37:58;;;;;;;26.30;17.30;;;;;;;;;;105154;1257;60352;-50
2023/02/11 11:40:29;;;;;;;31.90;17.90;;;;;;;;;;105046;1258;62004;-51
2023/02/11 11:43:12;;;;;;;37.20;21.40;;;;;;;;;;105424;1257;60431;-47
2023/02/11 11:45:54;;;;;;;40.10;24.60;;;;;;;;;;105300;1257;60328;-47
2023/02/11 11:48:31;;;;;;;45.10;26.50;;;;;;;;;;104767;1261;60470;-51
2023/02/11 11:51:03;;;;;;;38.40;22.30;;;;;;;;;;105202;1257;60348;-49
2023/02/11 11:53:39;;;;;;;30.10;18.10;;;;;;;;;;105262;1257;62004;-51
2023/02/11 11:56:07;;;;;;;26.00;16.10;;;;;;;;;;105253;1259;60377;-47
2023/02/11 11:58:36;;;;;;;28.60;16.80;;;;;;;;;;105553;1262;60852;-50
2023/02/11 12:01:10;;;;;;;28.80;18.10;;;;;;;;;;105147;1260;60425;-46
2023/02/11 12:03:47;;;;;;;35.50;19.80;;;;;;;;;;104913;1257;60768;-48
2023/02/11 12:06:21;;;;;;;39.00;21.40;;;;;;;;;;105248;1257;61124;-52
2023/02/11 12:08:49;;;;;;;36.60;20.80;;;;;;;;;;105004;1258;60402;-48
2023/02/11 12:11:33;;;;;;;42.40;22.30;;;;;;;;;;105864;1256;60754;-47
2023/02/11 12:14:30;;;;;;;38.60;22.60;;;;;;;;;;105229;1260;60543;-47
2023/02/11 12:17:07;;;;;;;37.20;21.40;;;;;;;;;;104755;1258;60432;-46
2023/02/11 12:19:39;;;;;;;33.10;18.20;;;;;;;;;;105074;1256;62029;-50
2023/02/11 12:22:07;;;;;;;30.80;17.10;;;;;;;;;;105134;1257;60540;-48
2023/02/11 12:24:38;;;;;;;26.50;16.90;;;;;;;;;;105847;1259;60786;-47
2023/02/11 12:27:15;;;;;;;27.70;17.30;;;;;;;;;;105830;1259;59665;-49
2023/02/11 12:29:45;;;;;;;27.80;16.40;;;;;;;;;;105074;1256;60357;-50
2023/02/11 12:32:16;;;;;;;24.90;15.90;;;;;;;;;;106151;1257;62134;-50
2023/02/11 12:34:50;;;;;;;22.70;14.80;;;;;;;;;;105038;1260;60568;-49
2023/02/11 12:37:28;;;;;;;23.50;15.20;;;;;;;;;;105249;1259;61000;-49
2023/02/11 12:40:01;;;;;;;21.90;12.70;;;;;;;;;;105049;1257;60434;-50
2023/02/11 12:45:32;;;;;;;25.80;14.60;;;;;;;;;;104971;1257;62344;-48
2023/02/11 12:48:00;;;;;;;27.20;15.20;;;;;;;;;;105252;1260;60441;-49
2023/02/11 12:50:37;;;;;;;30.30;16.70;;;;;;;;;;105058;1257;60620;-49
2023/02/11 12:53:05;;;;;;;31.70;16.50;;;;;;;;;;105148;1260;60342;-47
2023/02/11 12:55:35;;;;;;;29.80;17.30;;;;;;;;;;104993;1257;60404;-50
2023/02/11 12:58:05;;;;;;;24.50;14.80;;;;;;;;;;105406;1257;62068;-49
2023/02/11 13:00:37;;;;;;;26.70;14.10;;;;;;;;;;105121;1257;60443;-48
2023/02/11 13:03:05;;;;;;;18.90;11.20;;;;;;;;;;105043;1257;60598;-51
2023/02/11 13:05:50;;;;;;;20.70;11.70;;;;;;;;;;104960;1260;60454;-49
2023/02/11 13:08:19;;;;;;;18.60;11.00;;;;;;;;;;105232;1260;60376;-51
2023/02/11 13:10:52;;;;;;;15.10;14.10;;;;;;;;;;105397;1257;62088;-49
2023/02/11 13:13:26;;;;;;;17.20;10.50;;;;;;;;;;105185;1257;62859;-51